Time;durP1;ratioP1;P1;durP2;ratioP2;P2;SDS_P1;SDS_P2;PMS_P1;PMS_P2;Temp;Humidity;BMP_temperature;BMP_pressure;BME280_temperature;BME280_humidity;BME280_pressure;Samples;Min_cycle;Max_cycle;Signal;HPM_P1;HPM_P2
2022/03/26 00:00:53;;;;;;;31.90;13.32;;;;;;;7.39;100.00;98004.50;5151359;27;20116;-69
2022/03/26 00:03:19;;;;;;;31.88;13.10;;;;;;;7.32;100.00;97999.75;5151532;27;20074;-70
2022/03/26 00:05:46;;;;;;;32.03;13.77;;;;;;;7.39;100.00;98003.72;5151450;27;20057;-70
2022/03/26 00:08:13;;;;;;;35.50;13.40;;;;;;;7.28;100.00;98004.38;5151261;27;20425;-68
2022/03/26 00:10:39;;;;;;;30.02;12.63;;;;;;;7.32;100.00;98005.19;5151091;27;20042;-69
2022/03/26 00:13:06;;;;;;;28.85;12.32;;;;;;;7.28;100.00;98004.38;5151159;27;20047;-69
2022/03/26 00:15:33;;;;;;;30.27;11.82;;;;;;;7.26;100.00;98006.69;5151344;27;20512;-70
2022/03/26 00:17:59;;;;;;;32.10;12.13;;;;;;;7.22;100.00;98013.25;5150848;27;20133;-69
2022/03/26 00:20:26;;;;;;;28.35;12.05;;;;;;;7.28;100.00;98014.50;5151209;27;20046;-71
2022/03/26 00:22:52;;;;;;;24.75;12.07;;;;;;;7.21;100.00;98014.41;5150918;27;20050;-69
2022/03/26 00:25:18;;;;;;;33.72;12.00;;;;;;;7.26;100.00;98006.69;5152672;27;20050;-69
2022/03/26 00:27:45;;;;;;;27.17;11.77;;;;;;;7.24;100.00;97994.59;5154814;27;20129;-69
2022/03/26 00:30:12;;;;;;;33.63;14.27;;;;;;;7.22;100.00;98002.34;5154277;27;20522;-70
2022/03/26 00:32:38;;;;;;;33.58;13.85;;;;;;;7.30;100.00;97999.34;5154687;27;20042;-69
2022/03/26 00:35:06;;;;;;;27.88;13.48;;;;;;;7.40;100.00;97992.44;5154297;27;20050;-69
2022/03/26 00:37:33;;;;;;;23.95;11.98;;;;;;;7.39;100.00;97988.13;5154812;27;20072;-69
2022/03/26 00:39:59;;;;;;;27.88;12.82;;;;;;;7.37;100.00;97989.69;5154351;27;20439;-69
2022/03/26 00:42:26;;;;;;;24.63;11.95;;;;;;;7.41;100.00;97996.75;5154550;27;20059;-69
2022/03/26 00:44:52;;;;;;;25.05;11.52;;;;;;;7.41;100.00;98004.91;5154173;27;20051;-69
2022/03/26 00:47:18;;;;;;;25.23;12.07;;;;;;;7.43;100.00;97988.97;5154516;27;20047;-70
2022/03/26 00:49:44;;;;;;;25.23;12.20;;;;;;;7.38;100.00;97975.66;5154260;27;20133;-70
2022/03/26 00:52:11;;;;;;;28.85;12.93;;;;;;;7.36;100.00;97974.47;5154088;27;20051;-70
2022/03/26 00:54:39;;;;;;;28.52;12.88;;;;;;;7.30;100.00;97961.19;5154132;27;20055;-71
2022/03/26 00:57:05;;;;;;;30.05;13.13;;;;;;;7.30;100.00;97952.22;5153895;27;20054;-69
2022/03/26 00:59:31;;;;;;;29.50;12.15;;;;;;;7.22;100.00;97945.88;5154152;27;20061;-70
2022/03/26 01:01:58;;;;;;;30.85;12.57;;;;;;;7.25;100.00;97947.88;5154134;27;20413;-70
2022/03/26 01:04:24;;;;;;;32.60;12.77;;;;;;;7.31;100.00;97938.19;5154370;27;20073;-69
2022/03/26 01:06:50;;;;;;;28.02;12.38;;;;;;;7.32;100.00;97922.63;5153794;27;20501;-69
2022/03/26 01:09:16;;;;;;;26.73;12.88;;;;;;;7.37;100.00;97929.69;5153651;27;20096;-69
2022/03/26 01:11:43;;;;;;;29.40;13.05;;;;;;;7.39;100.00;97917.25;5153810;27;20063;-69
2022/03/26 01:14:10;;;;;;;26.08;13.10;;;;;;;7.34;100.00;97914.88;5154036;27;20080;-69
2022/03/26 01:16:36;;;;;;;33.13;13.23;;;;;;;7.40;100.00;97910.66;5153824;27;20043;-70
2022/03/26 01:19:02;;;;;;;27.10;12.60;;;;;;;7.42;100.00;97905.59;5153716;27;20115;-70
2022/03/26 01:21:29;;;;;;;35.08;14.07;;;;;;;7.44;100.00;97899.78;5153734;27;20452;-70
2022/03/26 01:23:55;;;;;;;30.50;13.73;;;;;;;7.44;100.00;97897.84;5153575;27;20054;-68
2022/03/26 01:26:22;;;;;;;40.03;15.27;;;;;;;7.47;100.00;97885.41;5153716;27;20060;-69
2022/03/26 01:28:49;;;;;;;33.83;15.27;;;;;;;7.52;100.00;97885.81;5153449;27;20106;-72
2022/03/26 01:31:19;;;;;;;29.63;13.25;;;;;;;7.48;100.00;97876.06;5153927;27;20098;-69
2022/03/26 01:33:46;;;;;;;33.88;13.63;;;;;;;7.55;100.00;97857.03;5153278;27;20047;-71
2022/03/26 01:36:12;;;;;;;36.22;14.15;;;;;;;7.53;100.00;97868.31;5153843;27;20418;-69
2022/03/26 01:38:39;;;;;;;37.25;12.60;;;;;;;7.57;100.00;97870.28;5153473;27;20053;-71
2022/03/26 01:41:05;;;;;;;30.67;14.15;;;;;;;7.59;100.00;97878.88;5153567;27;20046;-69
2022/03/26 01:43:31;;;;;;;34.08;13.02;;;;;;;7.64;100.00;97873.09;5153380;27;20528;-69
2022/03/26 01:45:58;;;;;;;28.30;13.57;;;;;;;7.65;100.00;97863.72;5153440;27;20051;-70
2022/03/26 01:48:24;;;;;;;30.30;13.55;;;;;;;7.66;100.00;97843.47;5153291;27;20054;-70
2022/03/26 01:50:51;;;;;;;35.33;13.13;;;;;;;7.59;100.00;97848.88;5153269;27;20047;-70
2022/03/26 01:53:17;;;;;;;37.72;14.13;;;;;;;7.64;100.00;97856.72;5153332;27;20078;-69
2022/03/26 01:55:44;;;;;;;39.08;14.40;;;;;;;7.66;100.00;97848.91;5153507;27;20609;-70
2022/03/26 01:58:10;;;;;;;28.27;12.68;;;;;;;7.72;100.00;97826.38;5153668;27;20081;-69
2022/03/26 02:00:36;;;;;;;34.67;13.57;;;;;;;7.68;100.00;97822.06;5153337;27;20433;-69
2022/03/26 02:03:04;;;;;;;31.67;13.18;;;;;;;7.67;100.00;97829.47;5153563;27;20047;-70
2022/03/26 02:05:30;;;;;;;28.95;14.45;;;;;;;7.75;100.00;97824.84;5152987;27;20114;-69
2022/03/26 02:07:56;;;;;;;35.63;14.23;;;;;;;7.67;100.00;97807.66;5153201;27;20150;-70
2022/03/26 02:10:23;;;;;;;33.47;14.98;;;;;;;7.64;100.00;97813.06;5152601;27;20046;-69
2022/03/26 02:12:49;;;;;;;37.80;14.38;;;;;;;7.57;100.00;97822.00;5153148;27;20433;-69
2022/03/26 02:15:16;;;;;;;28.17;13.93;;;;;;;7.50;100.00;97819.19;5152731;27;20047;-71
2022/03/26 02:17:43;;;;;;;30.83;13.65;;;;;;;7.49;100.00;97826.56;5152782;27;20497;-70
2022/03/26 02:20:12;;;;;;;30.20;12.98;;;;;;;7.50;100.00;97838.28;5152873;27;20047;-69
2022/03/26 02:22:39;;;;;;;36.15;14.23;;;;;;;7.44;100.00;97843.28;5152661;27;20133;-70
2022/03/26 02:25:07;;;;;;;27.05;12.02;;;;;;;7.40;100.00;97860.78;5152724;27;20061;-70
2022/03/26 02:27:35;;;;;;;21.02;11.02;;;;;;;7.43;100.00;97870.94;5152600;27;20912;-69
2022/03/26 02:30:03;;;;;;;26.35;12.20;;;;;;;7.39;100.00;97873.63;5153014;27;20211;-70
2022/03/26 02:32:30;;;;;;;27.45;12.13;;;;;;;7.34;100.00;97884.09;5152799;27;20050;-71
2022/03/26 02:34:57;;;;;;;31.98;11.80;;;;;;;7.34;100.00;97892.28;5152872;27;20477;-69
2022/03/26 02:37:24;;;;;;;28.77;11.73;;;;;;;7.34;100.00;97912.16;5152987;27;20050;-68
2022/03/26 02:39:50;;;;;;;29.20;11.75;;;;;;;7.25;100.00;97923.34;5152660;27;20129;-69
2022/03/26 02:42:17;;;;;;;21.25;11.05;;;;;;;7.23;100.00;97930.31;5152712;27;20054;-70
2022/03/26 02:44:43;;;;;;;26.75;11.43;;;;;;;7.19;100.00;97951.28;5152698;27;20482;-69
2022/03/26 02:47:10;;;;;;;26.67;11.77;;;;;;;7.22;100.00;97969.63;5152062;27;20046;-71
2022/03/26 02:49:37;;;;;;;27.73;11.65;;;;;;;7.21;100.00;97977.03;5152412;27;20051;-70
2022/03/26 02:52:04;;;;;;;25.38;11.45;;;;;;;7.16;100.00;97974.63;5152307;27;20054;-71
2022/03/26 02:54:31;;;;;;;26.88;11.52;;;;;;;7.15;100.00;97992.13;5152208;27;20057;-69
2022/03/26 02:56:57;;;;;;;25.77;12.90;;;;;;;7.18;100.00;97987.91;5152868;27;20118;-69
2022/03/26 02:59:24;;;;;;;26.20;11.40;;;;;;;7.18;100.00;98010.47;5152209;27;20098;-69
2022/03/26 03:01:51;;;;;;;25.80;11.27;;;;;;;7.15;100.00;98005.78;5152429;27;20047;-69
2022/03/26 03:04:18;;;;;;;23.05;10.68;;;;;;;7.04;100.00;98022.00;5152003;27;20076;-71
2022/03/26 03:06:44;;;;;;;25.30;11.02;;;;;;;7.09;100.00;98050.84;5152254;27;20106;-70
2022/03/26 03:09:10;;;;;;;21.58;10.63;;;;;;;6.99;100.00;98063.16;5151885;27;20055;-70
2022/03/26 03:11:37;;;;;;;26.60;11.25;;;;;;;6.93;100.00;98078.28;5152094;27;20054;-70
2022/03/26 03:14:05;;;;;;;27.13;10.00;;;;;;;6.99;100.00;98104.03;5151811;27;20458;-69
2022/03/26 03:16:31;;;;;;;25.10;10.85;;;;;;;6.89;100.00;98104.66;5151695;27;20520;-71
2022/03/26 03:18:57;;;;;;;31.88;11.23;;;;;;;6.91;100.00;98142.47;5151837;27;20054;-69
2022/03/26 03:21:24;;;;;;;25.42;11.18;;;;;;;6.82;100.00;98139.97;5151733;27;20520;-69
2022/03/26 03:23:50;;;;;;;24.45;9.82;;;;;;;6.82;100.00;98153.59;5151799;27;20053;-71
2022/03/26 03:26:16;;;;;;;19.73;9.70;;;;;;;6.89;100.00;98163.81;5151728;27;20055;-72
2022/03/26 03:28:44;;;;;;;25.13;10.23;;;;;;;6.92;100.00;98171.28;5151527;27;20058;-71
2022/03/26 03:31:10;;;;;;;27.73;10.30;;;;;;;6.92;100.00;98180.22;5151636;27;20398;-69
2022/03/26 03:33:37;;;;;;;24.65;10.35;;;;;;;6.88;100.00;98190.28;5151738;27;20065;-71
2022/03/26 03:36:03;;;;;;;22.52;10.65;;;;;;;6.88;100.00;98201.19;5151646;27;20115;-71
2022/03/26 03:38:30;;;;;;;23.73;9.88;;;;;;;6.85;100.00;98201.91;5151419;27;20505;-72
2022/03/26 03:40:56;;;;;;;29.83;10.32;;;;;;;6.90;100.00;98220.69;5151474;27;20130;-70
2022/03/26 03:43:22;;;;;;;22.38;10.50;;;;;;;6.86;100.00;98211.66;5151473;27;20077;-70
2022/03/26 03:45:50;;;;;;;26.83;10.05;;;;;;;6.92;100.00;98212.13;5151512;27;20057;-70
2022/03/26 03:48:16;;;;;;;18.58;9.27;;;;;;;6.87;100.00;98207.78;5151369;27;20054;-72
2022/03/26 03:50:42;;;;;;;24.27;10.07;;;;;;;6.98;100.00;98219.66;5151328;27;20046;-70
2022/03/26 03:53:08;;;;;;;24.92;10.75;;;;;;;6.94;100.00;98190.78;5151372;27;20047;-71
2022/03/26 03:55:35;;;;;;;24.30;10.77;;;;;;;6.94;100.00;98205.19;5151417;27;20047;-70
2022/03/26 03:58:01;;;;;;;20.33;9.15;;;;;;;6.98;100.00;98197.84;5151452;27;20054;-73
2022/03/26 04:00:28;;;;;;;22.40;10.00;;;;;;;7.03;100.00;98181.22;5153344;27;20102;-73
2022/03/26 04:02:54;;;;;;;28.27;11.25;;;;;;;7.03;100.00;98177.66;5155030;27;20054;-70
2022/03/26 04:05:21;;;;;;;28.92;10.75;;;;;;;7.01;100.00;98175.31;5155154;27;20046;-70
2022/03/26 04:07:48;;;;;;;35.03;11.20;;;;;;;7.06;100.00;98199.56;5154990;27;20057;-72
2022/03/26 04:10:14;;;;;;;31.83;10.20;;;;;;;7.06;100.00;98183.19;5154350;27;20502;-70
2022/03/26 04:12:42;;;;;;;22.30;10.32;;;;;;;7.16;100.00;98168.13;5154874;27;20050;-68
2022/03/26 04:15:10;;;;;;;21.80;9.88;;;;;;;7.17;100.00;98158.84;5154607;27;20501;-68
2022/03/26 04:17:36;;;;;;;25.23;10.27;;;;;;;7.21;100.00;98172.50;5154766;27;20569;-69
2022/03/26 04:20:06;;;;;;;24.50;10.55;;;;;;;7.23;100.00;98164.75;5154837;27;20051;-69
2022/03/26 04:22:32;;;;;;;27.05;10.65;;;;;;;7.23;100.00;98164.75;5154829;27;20058;-70
2022/03/26 04:24:58;;;;;;;27.77;11.07;;;;;;;7.21;100.00;98159.66;5154625;27;20050;-69
2022/03/26 04:27:26;;;;;;;19.95;9.75;;;;;;;7.19;100.00;98167.41;5154738;27;20050;-69
2022/03/26 04:29:52;;;;;;;21.88;10.43;;;;;;;7.27;100.00;98166.38;5154566;27;20493;-68
2022/03/26 04:32:19;;;;;;;21.95;10.02;;;;;;;7.31;100.00;98158.25;5154651;27;20099;-68
2022/03/26 04:34:45;;;;;;;29.20;10.45;;;;;;;7.37;100.00;98145.09;5154427;27;20089;-69
2022/03/26 04:37:12;;;;;;;22.70;9.95;;;;;;;7.35;100.00;98137.28;5154455;27;20050;-69
2022/03/26 04:39:38;;;;;;;24.35;11.02;;;;;;;7.37;100.00;98142.38;5154328;27;20043;-71
2022/03/26 04:42:05;;;;;;;23.30;10.00;;;;;;;7.36;100.00;98127.94;5154362;27;20427;-71
2022/03/26 04:44:31;;;;;;;37.70;10.00;;;;;;;7.41;100.00;98126.84;5154425;27;20054;-69
2022/03/26 04:46:58;;;;;;;21.85;10.57;;;;;;;7.37;100.00;98115.88;5154101;27;20089;-70
2022/03/26 04:49:24;;;;;;;26.83;10.75;;;;;;;7.44;100.00;98126.88;5154384;27;20549;-69
2022/03/26 04:51:50;;;;;;;29.52;9.95;;;;;;;7.42;100.00;98120.22;5153969;27;20047;-70
2022/03/26 04:54:17;;;;;;;22.70;10.65;;;;;;;7.44;100.00;98120.66;5154265;27;20059;-71
2022/03/26 04:56:43;;;;;;;23.17;10.85;;;;;;;7.47;100.00;98126.16;5154171;27;20042;-70
2022/03/26 04:59:09;;;;;;;24.08;11.15;;;;;;;7.52;100.00;98135.94;5154364;27;20467;-69
2022/03/26 05:01:36;;;;;;;44.17;12.18;;;;;;;7.54;100.00;98139.09;5154165;27;20046;-69
2022/03/26 05:04:02;;;;;;;23.45;11.68;;;;;;;7.61;100.00;98103.72;5154116;27;20543;-70
2022/03/26 05:06:28;;;;;;;21.70;11.15;;;;;;;7.65;100.00;98110.00;5154382;27;20061;-70
2022/03/26 05:08:55;;;;;;;31.08;11.07;;;;;;;7.60;100.00;98091.25;5154397;27;20861;-69
2022/03/26 05:11:22;;;;;;;25.05;12.00;;;;;;;7.65;100.00;98101.03;5153147;27;20486;-69
2022/03/26 05:13:49;;;;;;;24.13;11.00;;;;;;;7.64;100.00;98100.25;5153862;27;20506;-71
2022/03/26 05:16:15;;;;;;;27.55;11.38;;;;;;;7.70;100.00;98106.19;5153933;27;20050;-70
2022/03/26 05:18:41;;;;;;;26.70;11.05;;;;;;;7.72;100.00;98098.41;5153813;27;20082;-70
2022/03/26 05:21:08;;;;;;;23.10;11.00;;;;;;;7.81;100.00;98074.34;5153737;27;20078;-69
2022/03/26 05:23:34;;;;;;;29.15;10.25;;;;;;;7.76;100.00;98066.47;5153598;27;20053;-71
2022/03/26 05:26:00;;;;;;;26.40;11.95;;;;;;;7.82;100.00;98051.34;5153540;27;20058;-69
2022/03/26 05:28:27;;;;;;;25.15;11.15;;;;;;;7.77;100.00;98059.88;5153640;27;20055;-69
2022/03/26 05:30:54;;;;;;;23.38;11.07;;;;;;;7.85;100.00;98063.47;5153771;27;20138;-69
2022/03/26 05:33:20;;;;;;;33.38;11.63;;;;;;;7.91;100.00;98059.25;5153540;27;20051;-69
2022/03/26 05:35:47;;;;;;;28.48;12.90;;;;;;;7.92;100.00;98049.91;5153331;27;20161;-70
2022/03/26 05:38:13;;;;;;;28.48;11.35;;;;;;;7.90;100.00;98047.56;5153469;27;20046;-69
2022/03/26 05:40:39;;;;;;;30.75;12.82;;;;;;;7.86;100.00;98045.94;5153371;27;20130;-69
2022/03/26 05:43:06;;;;;;;30.35;13.45;;;;;;;7.95;100.00;98071.75;5153492;27;20092;-69
2022/03/26 05:45:33;;;;;;;33.38;12.77;;;;;;;7.88;100.00;98150.81;5153763;27;20054;-69
2022/03/26 05:48:02;;;;;;;24.35;10.52;;;;;;;7.88;100.00;98237.38;5153511;27;20057;-71
2022/03/26 05:50:29;;;;;;;23.83;10.88;;;;;;;7.75;100.00;98343.97;5153543;27;20089;-71
2022/03/26 05:52:55;;;;;;;27.75;12.32;;;;;;;7.66;100.00;98425.28;5153458;27;20472;-68
2022/03/26 05:55:22;;;;;;;28.20;13.20;;;;;;;7.61;100.00;98496.53;5153400;27;20051;-70
2022/03/26 05:57:48;;;;;;;26.17;11.95;;;;;;;7.58;100.00;98548.28;5153209;27;20089;-71
2022/03/26 06:00:15;;;;;;;28.73;12.82;;;;;;;7.47;100.00;98635.34;5153261;27;20137;-68
2022/03/26 06:02:42;;;;;;;31.50;12.85;;;;;;;7.41;100.00;98688.59;5153059;27;20433;-69
2022/03/26 06:05:09;;;;;;;23.67;12.00;;;;;;;7.42;100.00;98712.75;5153143;27;20055;-71
2022/03/26 06:07:36;;;;;;;29.45;12.02;;;;;;;7.29;100.00;98711.28;5153004;27;20054;-68
2022/03/26 06:10:03;;;;;;;35.03;13.20;;;;;;;7.36;100.00;98735.22;5152874;27;20418;-69
2022/03/26 06:12:29;;;;;;;28.45;11.70;;;;;;;7.31;100.00;98745.25;5152920;27;20046;-69
2022/03/26 06:14:56;;;;;;;34.78;12.00;;;;;;;7.35;100.00;98745.31;5152738;27;20050;-69
2022/03/26 06:17:22;;;;;;;29.00;14.02;;;;;;;7.37;100.00;98766.81;5152918;27;20137;-70
2022/03/26 06:19:49;;;;;;;22.35;12.32;;;;;;;7.41;100.00;98745.88;5153130;27;20103;-70
2022/03/26 06:22:15;;;;;;;28.52;12.30;;;;;;;7.39;100.00;98753.59;5151919;27;20071;-68
2022/03/26 06:24:42;;;;;;;25.00;12.68;;;;;;;7.41;100.00;98763.00;5152715;27;20086;-69
2022/03/26 06:27:08;;;;;;;39.33;13.00;;;;;;;7.44;100.00;98765.03;5152649;27;20050;-69
2022/03/26 06:29:36;;;;;;;28.45;12.82;;;;;;;7.43;100.00;98758.00;5152697;27;20046;-69
2022/03/26 06:32:03;;;;;;;30.20;12.82;;;;;;;7.47;100.00;98758.09;5152513;27;20051;-69
2022/03/26 06:34:29;;;;;;;26.00;11.95;;;;;;;7.51;100.00;98746.09;5152345;27;20498;-69
2022/03/26 06:36:56;;;;;;;25.60;12.10;;;;;;;7.59;100.00;98746.25;5152290;27;20104;-70
2022/03/26 06:39:22;;;;;;;29.05;12.25;;;;;;;7.72;100.00;98751.25;5152433;27;20472;-69
2022/03/26 06:41:48;;;;;;;28.95;11.60;;;;;;;7.82;100.00;98755.38;5152662;27;20543;-70
2022/03/26 06:44:15;;;;;;;31.10;12.00;;;;;;;7.89;100.00;98728.22;5152403;27;20051;-68
2022/03/26 06:46:41;;;;;;;24.55;11.90;;;;;;;7.96;100.00;98705.75;5152424;27;20050;-70
2022/03/26 06:49:09;;;;;;;30.55;11.40;;;;;;;7.96;100.00;98679.28;5152349;27;20050;-71
2022/03/26 06:51:35;;;;;;;24.05;11.85;;;;;;;8.00;100.00;98660.22;5152366;27;20046;-69
2022/03/26 06:54:03;;;;;;;22.75;11.38;;;;;;;8.05;100.00;98670.06;5152288;27;20047;-70
2022/03/26 06:56:29;;;;;;;28.30;12.48;;;;;;;8.15;100.00;98632.03;5152381;27;20059;-70
2022/03/26 06:58:56;;;;;;;24.13;12.15;;;;;;;8.18;100.00;98603.22;5152099;27;20130;-70
2022/03/26 07:01:22;;;;;;;26.42;12.43;;;;;;;8.21;100.00;98583.38;5152076;27;20407;-68
2022/03/26 07:03:48;;;;;;;25.45;11.55;;;;;;;8.21;100.00;98558.81;5151971;27;20057;-71
2022/03/26 07:06:15;;;;;;;23.58;11.98;;;;;;;8.35;100.00;98536.41;5152014;27;20063;-69
2022/03/26 07:08:42;;;;;;;26.13;11.75;;;;;;;8.36;100.00;98540.72;5151957;27;20486;-69
2022/03/26 07:11:09;;;;;;;23.88;11.02;;;;;;;8.35;100.00;98542.66;5151598;27;20079;-68
2022/03/26 07:13:35;;;;;;;28.23;13.27;;;;;;;8.26;100.00;98482.03;5152039;27;20047;-70
2022/03/26 07:16:02;;;;;;;27.35;11.02;;;;;;;8.29;100.00;98492.22;5151780;27;20050;-69
2022/03/26 07:18:28;;;;;;;25.92;11.60;;;;;;;8.22;100.00;98497.56;5151883;27;20049;-69
2022/03/26 07:20:58;;;;;;;24.02;11.05;;;;;;;8.29;100.00;98486.78;5151907;27;20093;-68
2022/03/26 07:23:25;;;;;;;21.58;10.90;;;;;;;8.42;100.00;98512.75;5151876;27;20058;-69
2022/03/26 07:25:51;;;;;;;26.08;13.52;;;;;;;8.52;100.00;98480.53;5151661;27;20047;-69
2022/03/26 07:28:18;;;;;;;28.60;10.50;;;;;;;8.61;100.00;98431.88;5151693;27;20550;-69
2022/03/26 07:30:44;;;;;;;24.10;11.00;;;;;;;8.57;100.00;98401.78;5151675;27;20053;-69
2022/03/26 07:33:10;;;;;;;22.70;10.55;;;;;;;8.56;100.00;98383.78;5151390;27;20134;-68
2022/03/26 07:35:37;;;;;;;31.60;10.27;;;;;;;8.62;100.00;98365.91;5151731;27;20062;-69
2022/03/26 07:38:03;;;;;;;23.75;11.05;;;;;;;8.65;100.00;98369.84;5151681;27;20096;-70
2022/03/26 07:40:29;;;;;;;19.65;9.90;;;;;;;8.64;100.00;98358.16;5151854;27;20114;-68
2022/03/26 07:42:56;;;;;;;24.30;11.05;;;;;;;8.64;100.00;98360.88;5151832;27;20386;-69
2022/03/26 07:45:23;;;;;;;20.98;10.15;;;;;;;8.64;100.00;98335.50;5151965;27;20054;-69
2022/03/26 07:47:50;;;;;;;22.58;10.40;;;;;;;8.63;100.00;98301.94;5151854;27;20463;-69
2022/03/26 07:50:16;;;;;;;25.85;10.82;;;;;;;8.61;100.00;98352.63;5151720;27;20086;-71
2022/03/26 07:52:42;;;;;;;19.98;9.35;;;;;;;8.63;100.00;98328.44;5151541;27;20084;-69
2022/03/26 07:55:10;;;;;;;21.67;9.48;;;;;;;8.71;100.00;98328.16;5151381;27;20047;-68
2022/03/26 07:57:36;;;;;;;25.20;10.23;;;;;;;8.73;100.00;98330.53;5151176;27;20167;-68
2022/03/26 08:00:03;;;;;;;24.45;11.25;;;;;;;8.70;100.00;98337.53;5151269;27;20047;-68
2022/03/26 08:02:30;;;;;;;17.20;8.80;;;;;;;8.72;100.00;98304.34;5151498;27;20054;-68
2022/03/26 08:04:56;;;;;;;22.55;8.80;;;;;;;8.65;100.00;98285.16;5151488;27;20058;-71
2022/03/26 08:07:23;;;;;;;23.92;10.25;;;;;;;8.65;100.00;98271.50;5151402;27;20080;-69
2022/03/26 08:09:49;;;;;;;27.92;11.10;;;;;;;8.65;100.00;98285.16;5150739;27;20047;-69
2022/03/26 08:12:15;;;;;;;20.55;10.48;;;;;;;8.67;100.00;98299.25;5151405;27;20134;-69
2022/03/26 08:14:42;;;;;;;21.33;9.57;;;;;;;8.62;100.00;98288.63;5150896;27;20050;-69
2022/03/26 08:17:09;;;;;;;17.13;8.93;;;;;;;8.55;100.00;98286.59;5151462;27;20047;-68
2022/03/26 08:19:36;;;;;;;22.90;11.05;;;;;;;8.54;100.00;98295.97;5150930;27;20047;-70
2022/03/26 08:22:03;;;;;;;21.95;10.15;;;;;;;8.52;100.00;98317.41;5151160;27;20050;-68
2022/03/26 08:24:29;;;;;;;19.13;9.50;;;;;;;8.52;100.00;98314.66;5150938;27;20055;-68
2022/03/26 08:26:56;;;;;;;20.08;9.55;;;;;;;8.49;100.00;98318.13;5150924;27;20053;-69
2022/03/26 08:29:22;;;;;;;20.27;9.93;;;;;;;8.52;100.00;98330.28;5150776;27;20050;-68
2022/03/26 08:31:49;;;;;;;22.65;9.98;;;;;;;8.48;100.00;98344.66;5151099;27;20095;-69
2022/03/26 08:34:15;;;;;;;17.42;9.13;;;;;;;8.48;100.00;98330.22;5150672;27;20075;-68
2022/03/26 08:36:42;;;;;;;19.60;9.48;;;;;;;8.40;100.00;98351.22;5150842;27;20486;-68
2022/03/26 08:39:09;;;;;;;20.00;8.77;;;;;;;8.39;100.00;98357.03;5150913;27;20082;-70
2022/03/26 08:41:35;;;;;;;23.52;9.55;;;;;;;8.41;100.00;98363.69;5150601;27;20057;-68
2022/03/26 08:44:01;;;;;;;17.00;9.07;;;;;;;8.43;100.00;98383.25;5150983;27;20082;-68
2022/03/26 08:46:28;;;;;;;23.17;9.45;;;;;;;8.45;100.00;98391.84;5152549;27;20046;-68
2022/03/26 08:48:54;;;;;;;25.80;9.68;;;;;;;8.44;100.00;98365.69;5154234;27;20050;-69
2022/03/26 08:51:20;;;;;;;17.67;10.02;;;;;;;8.46;100.00;98392.63;5153875;27;20099;-68
2022/03/26 08:53:47;;;;;;;25.45;11.18;;;;;;;8.46;100.00;98407.09;5153973;27;20055;-70
2022/03/26 08:56:14;;;;;;;21.50;9.77;;;;;;;8.44;100.00;98408.63;5153928;27;20520;-69
2022/03/26 08:58:40;;;;;;;18.00;8.15;;;;;;;8.37;100.00;98395.63;5154370;27;20129;-69
2022/03/26 09:01:07;;;;;;;18.83;9.00;;;;;;;8.36;100.00;98417.81;5154280;27;20421;-70
2022/03/26 09:03:37;;;;;;;23.60;10.65;;;;;;;8.39;100.00;98422.56;5154086;27;20097;-69
2022/03/26 09:06:06;;;;;;;30.42;12.27;;;;;;;8.46;100.00;98463.66;5154333;27;20450;-68
2022/03/26 09:08:32;;;;;;;17.27;8.68;;;;;;;8.41;100.00;98437.44;5153942;27;20053;-70
2022/03/26 09:10:59;;;;;;;19.02;8.85;;;;;;;8.42;100.00;98430.81;5153844;27;20482;-68
2022/03/26 09:13:26;;;;;;;18.17;8.93;;;;;;;8.47;100.00;98433.25;5153926;27;20046;-68
2022/03/26 09:15:52;;;;;;;20.05;9.38;;;;;;;8.49;100.00;98419.22;5154198;27;20135;-68
2022/03/26 09:18:18;;;;;;;22.42;10.25;;;;;;;8.55;100.00;98433.34;5153631;27;20043;-69
2022/03/26 09:20:45;;;;;;;25.35;8.57;;;;;;;8.63;100.00;98435.00;5153944;27;20046;-68
2022/03/26 09:23:11;;;;;;;22.17;9.40;;;;;;;8.67;100.00;98441.31;5153562;27;20086;-68
2022/03/26 09:25:37;;;;;;;17.80;8.27;;;;;;;8.64;100.00;98406.53;5153691;27;20425;-68
2022/03/26 09:28:05;;;;;;;17.42;8.45;;;;;;;8.70;100.00;98410.53;5153571;27;20458;-69
2022/03/26 09:30:31;;;;;;;21.13;9.63;;;;;;;8.70;100.00;98394.91;5153631;27;20119;-68
2022/03/26 09:32:59;;;;;;;16.80;8.95;;;;;;;8.60;100.00;98381.13;5153700;27;20050;-68
2022/03/26 09:35:25;;;;;;;17.40;8.20;;;;;;;8.54;100.00;98399.00;5153543;27;20051;-68
2022/03/26 09:37:51;;;;;;;15.65;7.43;;;;;;;8.40;100.00;98381.25;5153418;27;20053;-69
2022/03/26 09:40:21;;;;;;;17.52;7.38;;;;;;;8.28;100.00;98414.19;5153247;27;20057;-68
2022/03/26 09:42:47;;;;;;;14.30;7.63;;;;;;;8.23;100.00;98459.00;5153586;27;20057;-68
2022/03/26 09:45:14;;;;;;;14.55;7.53;;;;;;;8.16;100.00;98472.53;5153305;27;20406;-69
2022/03/26 09:47:40;;;;;;;13.23;8.02;;;;;;;8.19;100.00;98493.63;5153452;27;20055;-67
2022/03/26 09:50:09;;;;;;;12.95;7.95;;;;;;;8.15;100.00;98506.44;5153075;27;20050;-67
2022/03/26 09:52:36;;;;;;;19.52;8.18;;;;;;;8.14;100.00;98524.00;5152994;27;20047;-68
2022/03/26 09:55:04;;;;;;;17.13;7.60;;;;;;;8.12;100.00;98528.22;5153004;27;20082;-68
2022/03/26 09:57:31;;;;;;;17.55;8.32;;;;;;;8.14;100.00;98534.13;5151751;27;20095;-69
2022/03/26 09:59:58;;;;;;;20.90;7.97;;;;;;;8.15;100.00;98522.81;5153290;27;20055;-69
2022/03/26 10:02:25;;;;;;;15.40;6.70;;;;;;;8.24;100.00;98519.88;5153017;27;20051;-69
2022/03/26 10:04:52;;;;;;;17.48;6.80;;;;;;;8.54;100.00;98521.94;5153367;27;20620;-68
2022/03/26 10:07:28;;;;;;;10.80;5.65;;;;;;;8.76;100.00;98480.09;5152897;27;20069;-68
2022/03/26 10:09:55;;;;;;;11.77;6.05;;;;;;;8.87;100.00;98376.38;5152997;27;20050;-68
2022/03/26 10:12:24;;;;;;;15.32;5.50;;;;;;;8.84;100.00;98314.25;5153068;27;20421;-69
2022/03/26 10:14:52;;;;;;;11.70;5.13;;;;;;;8.78;100.00;98275.53;5153206;27;20413;-68
2022/03/26 10:17:19;;;;;;;13.10;5.00;;;;;;;8.77;100.00;98205.66;5152802;27;20054;-69
2022/03/26 10:19:49;;;;;;;10.77;4.05;;;;;;;8.81;100.00;98151.81;5152609;27;20057;-68
2022/03/26 10:22:26;;;;;;;11.85;4.45;;;;;;;8.77;100.00;98109.22;5153009;27;20110;-70
2022/03/26 10:24:53;;;;;;;9.00;4.28;;;;;;;8.75;100.00;98136.13;5152849;27;20138;-69
2022/03/26 10:27:19;;;;;;;9.38;3.97;;;;;;;9.09;100.00;98140.31;5153206;27;20134;-68
2022/03/26 10:29:53;;;;;;;8.82;4.30;;;;;;;9.62;100.00;98087.84;5152749;27;20098;-69
2022/03/26 10:32:41;;;;;;;13.93;4.30;;;;;;;10.10;100.00;97952.69;5152939;27;20046;-68
2022/03/26 10:35:17;;;;;;;12.85;5.22;;;;;;;10.25;100.00;97811.03;5153051;27;20542;-68
2022/03/26 10:37:46;;;;;;;12.10;4.43;;;;;;;10.33;100.00;97692.88;5152667;27;20482;-69
2022/03/26 10:40:25;;;;;;;10.57;5.38;;;;;;;10.64;100.00;97654.72;5152695;27;20495;-69
2022/03/26 10:42:56;;;;;;;8.73;4.30;;;;;;;11.11;100.00;97548.19;5152877;27;20058;-70
2022/03/26 10:45:23;;;;;;;11.15;4.45;;;;;;;11.61;100.00;97484.47;5152374;27;20444;-69
2022/03/26 10:47:52;;;;;;;7.50;3.55;;;;;;;12.08;100.00;97379.50;5152419;27;20047;-68
2022/03/26 10:50:19;;;;;;;13.13;3.85;;;;;;;12.00;100.00;97290.97;5152129;27;20086;-70
2022/03/26 10:52:46;;;;;;;9.82;3.70;;;;;;;11.70;100.00;97298.09;5152372;27;20446;-68
2022/03/26 10:55:16;;;;;;;5.97;3.42;;;;;;;11.28;100.00;97278.38;5152719;27;20053;-68
2022/03/26 10:57:45;;;;;;;9.15;4.10;;;;;;;10.89;100.00;97281.66;5152142;27;20513;-68
2022/03/26 11:00:12;;;;;;;6.53;3.10;;;;;;;10.67;100.00;97280.41;5152163;27;20051;-69
2022/03/26 11:02:39;;;;;;;6.95;2.90;;;;;;;10.58;100.00;97270.72;5152323;27;20042;-68
2022/03/26 11:05:06;;;;;;;12.50;3.13;;;;;;;10.60;100.00;97268.34;5152145;27;20086;-68
2022/03/26 11:07:36;;;;;;;11.52;3.45;;;;;;;11.01;100.00;97253.69;5152203;27;20133;-70
2022/03/26 11:10:05;;;;;;;5.43;2.58;;;;;;;11.48;100.00;97217.31;5150998;27;20049;-68
2022/03/26 11:12:32;;;;;;;7.38;3.40;;;;;;;11.82;100.00;97200.63;5152083;27;20055;-69
2022/03/26 11:15:00;;;;;;;4.57;2.53;;;;;;;11.66;100.00;97206.00;5151717;27;20421;-68
2022/03/26 11:17:51;;;;;;;8.52;2.88;;;;;;;11.54;100.00;97202.69;5151991;27;20051;-68